Time;durP1;ratioP1;P1;durP2;ratioP2;P2;SDS_P1;SDS_P2;PMS_P1;PMS_P2;Temp;Humidity;BMP_temperature;BMP_pressure;BME280_temperature;BME280_humidity;BME280_pressure;Samples;Min_cycle;Max_cycle;Signal;HPM_P1;HPM_P2
2022/08/22 00:01:31;;;;;;;;;5.75;5.00;;;;;22.20;50.93;100692.19;4996495;28;45512;-63
2022/08/22 00:04:03;;;;;;;;;5.00;5.00;;;;;22.16;50.74;100693.38;4999539;28;45391;-63
2022/08/22 00:06:49;;;;;;;;;4.00;4.00;;;;;22.18;50.79;100702.19;5073384;27;45417;-64
2022/08/22 00:09:30;;;;;;;;;5.75;5.75;;;;;22.14;51.03;100711.44;5079016;28;45486;-63
2022/08/22 00:12:23;;;;;;;;;5.75;5.75;;;;;22.17;51.04;100691.59;5078786;28;45402;-66
2022/08/22 00:15:09;;;;;;;;;2.50;2.50;;;;;22.10;51.04;100693.06;5079043;28;45430;-63
2022/08/22 00:17:48;;;;;;;;;3.75;3.75;;;;;22.03;51.16;100695.38;5060651;28;45433;-63
2022/08/22 00:20:34;;;;;;;;;5.00;5.00;;;;;22.04;51.21;100684.53;5079155;28;45494;-65
2022/08/22 00:23:32;;;;;;;;;5.25;4.75;;;;;22.05;51.12;100680.03;5092189;27;45485;-65
2022/08/22 00:26:07;;;;;;;;;4.75;4.75;;;;;22.04;51.03;100665.78;5099178;27;45334;-64
2022/08/22 00:28:58;;;;;;;;;4.50;4.50;;;;;22.01;51.20;100666.06;5097552;27;45312;-65
2022/08/22 00:31:55;;;;;;;;;4.25;4.00;;;;;22.07;50.92;100664.69;5070797;28;45558;-63
2022/08/22 00:34:49;;;;;;;;;5.00;5.00;;;;;22.10;50.97;100664.44;5078485;27;45534;-63
2022/08/22 00:37:26;;;;;;;;;5.25;5.25;;;;;22.09;50.82;100670.78;5078827;28;45424;-63
2022/08/22 00:40:01;;;;;;;;;7.00;5.00;;;;;22.10;50.84;100660.91;5078298;28;45339;-62
2022/08/22 00:42:44;;;;;;;;;5.75;4.00;;;;;22.15;50.50;100658.72;5078156;28;45513;-65
2022/08/22 00:45:28;;;;;;;;;7.25;4.50;;;;;22.09;50.51;100660.06;5077148;28;45528;-62
2022/08/22 00:48:31;;;;;;;;;5.50;4.25;;;;;22.08;50.37;100673.56;5078182;28;45444;-61
2022/08/22 00:51:13;;;;;;;;;3.50;3.50;;;;;22.07;50.33;100678.09;5078137;28;45752;-62
2022/08/22 00:53:49;;;;;;;;;7.00;5.00;;;;;22.02;50.60;100677.59;5078245;28;45428;-63
2022/08/22 00:56:55;;;;;;;;;3.00;3.00;;;;;21.99;50.81;100677.88;5078316;28;45394;-65
2022/08/22 00:59:38;;;;;;;;;5.00;5.00;;;;;22.02;50.65;100674.94;5077551;28;45513;-62
2022/08/22 01:02:20;;;;;;;;;3.25;3.25;;;;;22.01;50.57;100670.56;5092362;27;45413;-63
2022/08/22 01:05:06;;;;;;;;;4.00;4.00;;;;;21.95;50.74;100671.03;5098454;27;45488;-65
2022/08/22 01:07:45;;;;;;;;;3.00;3.00;;;;;21.95;50.78;100676.41;5080562;27;45418;-65
2022/08/22 01:10:48;;;;;;;;;4.00;4.00;;;;;21.96;50.54;100686.16;5080372;27;45410;-63
2022/08/22 01:13:50;;;;;;;;;4.00;4.00;;;;;21.99;50.60;100691.25;5098588;27;45389;-64
2022/08/22 01:16:37;;;;;;;;;3.75;3.75;;;;;21.96;50.23;100686.16;5087966;27;45416;-62
2022/08/22 01:19:42;;;;;;;;;4.75;4.75;;;;;21.98;50.12;100684.22;5084764;27;45523;-66
2022/08/22 01:22:22;;;;;;;;;5.00;4.00;;;;;21.98;49.90;100676.19;5060386;27;45513;-65
2022/08/22 01:25:38;;;;;;;;;3.00;3.00;;;;;21.96;49.81;100675.44;5079687;27;45463;-63
2022/08/22 01:28:26;;;;;;;;;3.50;3.50;;;;;21.92;49.53;100688.22;5052878;27;46002;-64
2022/08/22 01:31:07;;;;;;;;;3.25;3.25;;;;;21.80;49.72;100675.84;5079680;27;45512;-63
2022/08/22 01:33:39;;;;;;;;;2.50;2.00;;;;;21.79;49.77;100676.84;5098463;27;45417;-62
2022/08/22 01:36:21;;;;;;;;;6.50;4.75;;;;;21.81;49.88;100659.63;5097897;27;45326;-65
2022/08/22 01:39:15;;;;;;;;;3.25;3.25;;;;;21.83;49.51;100654.16;5097905;27;46373;-66
2022/08/22 01:42:19;;;;;;;;;7.50;5.00;;;;;21.86;49.26;100664.63;5082400;27;45431;-64
2022/08/22 01:45:09;;;;;;;;;2.50;2.00;;;;;21.87;49.31;100655.63;5097108;27;45437;-65
2022/08/22 01:47:47;;;;;;;;;2.75;2.75;;;;;21.92;49.08;100653.41;5092465;27;45501;-63
2022/08/22 01:50:24;;;;;;;;;5.00;3.50;;;;;21.90;49.32;100654.53;5097660;27;45457;-64
2022/08/22 01:53:18;;;;;;;;;3.25;3.25;;;;;21.85;49.49;100646.88;5097743;27;45638;-63
2022/08/22 01:56:18;;;;;;;;;5.00;5.00;;;;;21.89;49.08;100650.97;5097989;27;45421;-61
2022/08/22 01:59:06;;;;;;;;;4.00;4.00;;;;;21.81;49.01;100654.28;5078982;27;45581;-63
2022/08/22 02:01:53;;;;;;;;;4.00;4.00;;;;;21.83;49.16;100655.00;5096257;27;46425;-62
2022/08/22 02:04:52;;;;;;;;;3.75;3.75;;;;;21.79;49.20;100652.72;5077052;28;45456;-63
2022/08/22 02:07:26;;;;;;;;;2.75;2.00;;;;;21.82;49.14;100671.22;5077267;28;45434;-64
2022/08/22 02:10:20;;;;;;;;;2.75;2.75;;;;;21.78;49.27;100659.88;5073419;27;45406;-63
2022/08/22 02:13:03;;;;;;;;;3.50;3.50;;;;;21.75;49.35;100670.84;5096405;27;45513;-64
2022/08/22 02:15:37;;;;;;;;;3.75;3.00;;;;;21.77;49.37;100658.19;5077018;28;45465;-66
2022/08/22 02:18:06;;;;;;;;;5.25;4.00;;;;;21.78;49.16;100667.91;5077145;28;45448;-63
2022/08/22 02:20:39;;;;;;;;;3.50;3.50;;;;;21.80;49.12;100655.28;5059331;28;45468;-64
2022/08/22 02:23:16;;;;;;;;;4.75;4.25;;;;;21.78;48.88;100656.38;5058646;28;46866;-65
2022/08/22 02:26:00;;;;;;;;;4.00;4.00;;;;;21.77;48.83;100665.38;5058856;28;45517;-64
2022/08/22 02:28:37;;;;;;;;;3.00;3.00;;;;;21.66;49.21;100666.25;5084814;27;45441;-64
2022/08/22 02:31:19;;;;;;;;;3.50;3.25;;;;;21.65;49.07;100661.84;5079393;27;45591;-62
2022/08/22 02:33:44;;;;;;;;;4.00;4.00;;;;;21.66;48.83;100657.38;5076809;28;45450;-65
2022/08/22 02:36:33;;;;;;;;;2.75;2.75;;;;;21.65;48.92;100655.66;5076603;28;45565;-63
2022/08/22 02:39:17;;;;;;;;;2.25;2.25;;;;;21.69;49.41;100662.47;5076896;28;45404;-65
2022/08/22 02:41:58;;;;;;;;;3.75;3.75;;;;;21.71;48.94;100661.38;5094567;27;45358;-64
2022/08/22 02:44:26;;;;;;;;;3.00;3.00;;;;;21.65;48.73;100664.53;5078484;27;48532;-64
2022/08/22 02:47:01;;;;;;;;;4.50;3.25;;;;;21.60;49.02;100666.72;5095578;27;45473;-63
2022/08/22 02:49:41;;;;;;;;;5.00;3.50;;;;;21.60;49.08;100664.94;5058339;28;45429;-62
2022/08/22 02:52:57;;;;;;;;;4.00;4.00;;;;;21.62;49.02;100664.78;5076624;28;45568;-62
2022/08/22 02:55:41;;;;;;;;;5.50;4.00;;;;;21.59;48.97;100657.84;5070101;28;45457;-64
2022/08/22 02:58:22;;;;;;;;;2.25;2.25;;;;;21.61;48.84;100663.09;5076287;27;45437;-63
2022/08/22 03:01:10;;;;;;;;;4.00;4.00;;;;;21.58;49.26;100666.03;5075966;28;45387;-63
2022/08/22 03:03:44;;;;;;;;;4.75;3.75;;;;;21.49;49.41;100664.91;5077206;27;45588;-65
2022/08/22 03:06:15;;;;;;;;;3.00;3.00;;;;;21.49;49.72;100658.72;5075931;27;46137;-64
2022/08/22 03:09:04;;;;;;;;;2.50;2.50;;;;;21.47;49.86;100658.88;5076206;28;46257;-65
2022/08/22 03:11:36;;;;;;;;;4.00;4.00;;;;;21.45;49.50;100650.09;5058308;28;45433;-65
2022/08/22 03:14:04;;;;;;;;;3.00;3.00;;;;;21.48;49.63;100657.88;5076247;28;45454;-64
2022/08/22 03:16:44;;;;;;;;;3.00;2.00;;;;;21.45;49.99;100650.09;5077271;27;45527;-64
2022/08/22 03:19:16;;;;;;;;;3.75;3.75;;;;;21.46;49.87;100658.97;5096431;27;45541;-63
2022/08/22 03:21:48;;;;;;;;;4.25;4.25;;;;;21.42;50.10;100655.69;5097184;27;45483;-62
2022/08/22 03:24:28;;;;;;;;;3.00;3.00;;;;;21.38;50.49;100667.59;5096625;27;45465;-64
2022/08/22 03:27:18;;;;;;;;;3.25;3.25;;;;;21.31;50.68;100664.56;5096443;27;46560;-63
2022/08/22 03:30:00;;;;;;;;;3.00;3.00;;;;;21.23;50.55;100653.59;5082965;27;45489;-63
2022/08/22 03:32:47;;;;;;;;;5.00;5.00;;;;;21.24;50.98;100646.44;5076235;28;45498;-62
2022/08/22 03:35:24;;;;;;;;;3.00;3.00;;;;;21.23;50.80;100653.59;5076249;28;45564;-63
2022/08/22 03:37:55;;;;;;;;;3.50;3.50;;;;;21.24;50.92;100647.28;5075819;28;45434;-63
2022/08/22 03:40:44;;;;;;;;;4.00;4.00;;;;;21.22;50.97;100643.84;5075803;28;46130;-64
2022/08/22 03:43:46;;;;;;;;;4.00;4.00;;;;;21.20;51.06;100653.84;5077673;27;45559;-63
2022/08/22 03:46:42;;;;;;;;;3.25;3.25;;;;;21.20;51.46;100651.19;5096196;27;45597;-62
2022/08/22 03:49:35;;;;;;;;;5.25;3.00;;;;;21.15;51.51;100651.53;5095405;27;46138;-65
2022/08/22 03:52:09;;;;;;;;;8.00;5.50;;;;;21.15;51.29;100653.38;5090001;27;45491;-65
2022/08/22 03:54:40;;;;;;;;;4.00;4.00;;;;;21.15;51.69;100656.88;5075780;28;45430;-63
2022/08/22 03:57:39;;;;;;;;;3.00;3.00;;;;;21.14;51.20;100641.81;5093304;27;45490;-64
2022/08/22 04:00:36;;;;;;;;;4.50;4.00;;;;;21.17;51.14;100636.22;5095715;27;45491;-62
2022/08/22 04:03:35;;;;;;;;;6.25;5.50;;;;;21.15;51.49;100642.66;5034683;27;45603;-65
2022/08/22 04:06:03;;;;;;;;;4.75;4.00;;;;;21.16;51.37;100636.34;5096011;27;45450;-65
2022/08/22 04:08:40;;;;;;;;;4.00;3.25;;;;;21.10;51.67;100628.81;5098823;27;45552;-66
2022/08/22 04:11:23;;;;;;;;;3.00;3.00;;;;;21.10;51.75;100626.13;5099461;27;46066;-66
2022/08/22 04:14:18;;;;;;;;;4.25;4.25;;;;;21.14;51.27;100627.56;5099540;27;45517;-65
2022/08/22 04:17:05;;;;;;;;;3.25;3.25;;;;;21.16;51.41;100622.97;5076939;27;45615;-64
2022/08/22 04:19:56;;;;;;;;;4.75;4.75;;;;;21.14;51.39;100630.25;5099132;27;45476;-64
2022/08/22 04:22:57;;;;;;;;;6.00;5.00;;;;;21.08;51.60;100636.09;5060460;27;46197;-64
2022/08/22 04:25:39;;;;;;;;;5.00;3.75;;;;;21.08;51.86;100633.41;5059533;27;45414;-66
2022/08/22 04:28:10;;;;;;;;;5.00;3.00;;;;;21.09;51.66;100648.47;5099394;27;45480;-61
2022/08/22 04:30:51;;;;;;;;;5.50;3.00;;;;;21.07;51.44;100637.06;5099054;27;45403;-64
2022/08/22 04:33:36;;;;;;;;;7.00;4.75;;;;;21.07;51.60;100634.41;5098909;27;47000;-65
2022/08/22 04:36:06;;;;;;;;;3.25;3.25;;;;;21.02;51.31;100636.59;5099051;27;45524;-64
2022/08/22 04:38:49;;;;;;;;;2.75;2.75;;;;;20.98;51.48;100632.44;5091583;27;45367;-66
2022/08/22 04:41:25;;;;;;;;;3.50;3.50;;;;;20.95;51.50;100642.41;5078597;27;45381;-64
2022/08/22 04:44:02;;;;;;;;;4.67;4.00;;;;;20.92;51.39;100629.25;5078300;28;46161;-64
2022/08/22 04:46:37;;;;;;;;;5.25;5.25;;;;;20.91;51.42;100621.38;5078381;28;45472;-65
2022/08/22 04:49:37;;;;;;;;;4.25;4.00;;;;;20.89;51.46;100628.66;5078440;28;45510;-62
2022/08/22 04:52:20;;;;;;;;;4.00;3.25;;;;;20.89;51.66;100634.84;5078250;28;45371;-65
2022/08/22 04:55:03;;;;;;;;;4.25;3.75;;;;;20.89;51.49;100640.19;5092575;27;46286;-66
2022/08/22 04:57:55;;;;;;;;;3.50;3.50;;;;;20.90;51.52;100647.28;5093235;27;45457;-64
2022/08/22 05:00:21;;;;;;;;;6.25;5.25;;;;;20.90;51.72;100654.41;5059895;28;45563;-61
2022/08/22 05:02:50;;;;;;;;;4.75;4.50;;;;;20.91;52.08;100659.66;5077371;27;45593;-63
2022/08/22 05:05:22;;;;;;;;;3.25;3.25;;;;;20.92;51.76;100653.31;5077399;28;46407;-65
2022/08/22 05:07:53;;;;;;;;;6.33;4.67;;;;;20.95;51.25;100642.41;5078122;28;45513;-62
2022/08/22 05:10:45;;;;;;;;;5.00;5.00;;;;;20.94;51.75;100659.41;5077964;28;45397;-65
2022/08/22 05:13:25;;;;;;;;;4.00;4.00;;;;;20.87;51.94;100678.72;5077918;27;45442;-65
2022/08/22 05:15:55;;;;;;;;;3.00;3.00;;;;;20.85;52.31;100684.19;5077851;28;45749;-64
2022/08/22 05:18:28;;;;;;;;;4.25;3.50;;;;;20.86;52.49;100679.69;5077937;28;45403;-64
2022/08/22 05:20:56;;;;;;;;;5.00;5.00;;;;;20.88;52.25;100665.25;5078534;28;45437;-63
2022/08/22 05:23:36;;;;;;;;;4.00;4.00;;;;;20.89;52.15;100666.09;5077876;28;45493;-60
2022/08/22 05:26:05;;;;;;;;;5.00;5.00;;;;;20.91;52.23;100656.13;5077752;28;46267;-62
2022/08/22 05:28:45;;;;;;;;;4.75;3.00;;;;;20.94;51.96;100666.59;5097628;27;45483;-64
2022/08/22 05:31:19;;;;;;;;;5.75;5.00;;;;;21.01;52.04;100672.28;5085761;27;45378;-64
2022/08/22 05:33:52;;;;;;;;;4.00;4.00;;;;;20.98;52.16;100675.22;5098198;27;45478;-63
2022/08/22 05:36:25;;;;;;;;;3.00;3.00;;;;;20.97;52.21;100682.38;5087527;27;46538;-61
2022/08/22 05:38:57;;;;;;;;;5.00;5.00;;;;;20.94;52.12;100680.81;5076591;27;45585;-64
2022/08/22 05:41:26;;;;;;;;;4.50;4.50;;;;;20.94;51.99;100686.16;5077564;28;45502;-65
2022/08/22 05:43:53;;;;;;;;;5.25;5.00;;;;;21.01;52.41;100688.34;5077422;28;45463;-63
2022/08/22 05:46:37;;;;;;;;;4.75;4.75;;;;;21.00;52.09;100687.50;5077350;27;46032;-62
2022/08/22 05:49:14;;;;;;;;;5.25;5.25;;;;;21.06;52.11;100699.53;5092052;27;45552;-66
2022/08/22 05:51:47;;;;;;;;;6.00;6.00;;;;;21.07;51.98;100707.44;5078283;27;45343;-64
2022/08/22 05:54:26;;;;;;;;;5.25;5.25;;;;;21.07;52.13;100695.91;5077184;28;45451;-65
2022/08/22 05:57:33;;;;;;;;;5.67;5.00;;;;;21.13;52.32;100685.56;5058258;28;45480;-64
2022/08/22 06:00:10;;;;;;;;;6.67;6.00;;;;;21.17;51.85;100689.72;5076265;28;45501;-63
2022/08/22 06:03:08;;;;;;;;;4.00;4.00;;;;;21.21;51.93;100703.69;5077562;27;45425;-63
2022/08/22 06:05:40;;;;;;;;;5.00;5.00;;;;;21.21;51.96;100697.50;5081755;27;45406;-63
2022/08/22 06:08:16;;;;;;;;;9.50;7.00;;;;;21.22;52.02;100699.19;5097283;27;46144;-63
2022/08/22 06:11:14;;;;;;;;;5.00;5.00;;;;;21.16;51.75;100693.34;5097399;27;45464;-62
2022/08/22 06:13:52;;;;;;;;;5.75;5.75;;;;;21.28;51.95;100702.25;5090664;27;45375;-64
2022/08/22 06:16:52;;;;;;;;;7.33;6.67;;;;;21.28;52.05;100704.94;5089614;27;45387;-65
2022/08/22 06:19:18;;;;;;;;;4.25;3.25;;;;;21.35;51.65;100707.94;5085503;27;45458;-63
2022/08/22 06:21:47;;;;;;;;;7.00;5.00;;;;;21.35;51.61;100697.25;5097712;27;45481;-63
2022/08/22 06:24:22;;;;;;;;;5.00;5.00;;;;;21.37;51.51;100685.50;5091683;27;45494;-64
2022/08/22 06:26:50;;;;;;;;;6.00;5.00;;;;;21.37;51.50;100688.16;5078133;27;45515;-64
2022/08/22 06:29:28;;;;;;;;;8.50;5.25;;;;;21.40;51.68;100700.44;5074949;27;46123;-63
2022/08/22 06:31:55;;;;;;;;;6.00;6.00;;;;;21.45;51.39;100702.78;5092349;27;45532;-56
2022/08/22 06:34:33;;;;;;;;;9.00;7.00;;;;;21.47;51.35;100699.00;5059574;27;45512;-63
2022/08/22 06:37:08;;;;;;;;;6.00;5.33;;;;;21.53;50.90;100703.00;5087495;27;45362;-61
2022/08/22 06:39:38;;;;;;;;;5.00;5.00;;;;;21.51;50.65;100702.28;5075697;28;46382;-63
2022/08/22 06:42:21;;;;;;;;;6.75;5.75;;;;;21.48;50.84;100703.38;5076652;28;45418;-63
2022/08/22 06:44:58;;;;;;;;;10.00;8.67;;;;;21.50;51.16;100703.25;5076645;28;45422;-62
2022/08/22 06:47:47;;;;;;;;;5.00;5.00;;;;;21.56;51.23;100700.09;5076323;28;45556;-60
2022/08/22 06:50:30;;;;;;;;;6.25;4.50;;;;;21.55;50.58;100699.25;5075905;28;46019;-62
2022/08/22 06:53:14;;;;;;;;;7.33;7.00;;;;;21.57;50.72;100707.13;5076236;28;45440;-61
2022/08/22 06:55:49;;;;;;;;;5.25;5.00;;;;;21.60;50.77;100701.53;5076059;28;45361;-63
2022/08/22 06:58:19;;;;;;;;;4.00;4.00;;;;;21.58;50.81;100692.78;5076165;28;45553;-63
2022/08/22 07:00:46;;;;;;;;;5.75;5.75;;;;;21.58;50.27;100688.28;5075871;28;45565;-63
2022/08/22 07:03:24;;;;;;;;;5.50;5.50;;;;;21.64;50.82;100700.31;5076253;28;45424;-61
2022/08/22 07:05:53;;;;;;;;;8.50;7.75;;;;;21.70;50.72;100694.47;5057771;28;45395;-60
2022/08/22 07:08:21;;;;;;;;;7.33;6.00;;;;;21.74;49.99;100698.63;5076389;28;45527;-61
2022/08/22 07:10:57;;;;;;;;;8.00;7.33;;;;;21.76;50.28;100710.06;5076104;28;45494;-59
2022/08/22 07:13:25;;;;;;;;;6.00;6.00;;;;;21.79;50.36;100719.66;5076068;28;45418;-62
2022/08/22 07:15:56;;;;;;;;;7.25;6.00;;;;;21.81;50.23;100723.03;5076187;28;45394;-63
2022/08/22 07:18:24;;;;;;;;;8.00;6.33;;;;;21.82;50.44;100720.25;5076009;28;45525;-60
2022/08/22 07:20:53;;;;;;;;;6.00;6.00;;;;;21.87;50.29;100719.91;5075641;28;46712;-60
2022/08/22 07:23:24;;;;;;;;;5.00;5.00;;;;;21.90;49.85;100725.00;5076121;28;45496;-61
2022/08/22 07:26:31;;;;;;;;;6.00;5.00;;;;;21.90;49.80;100729.50;5076058;28;45395;-61
2022/08/22 07:28:56;;;;;;;;;4.25;4.25;;;;;21.89;50.00;100738.50;5029381;28;45504;-62
2022/08/22 07:31:28;;;;;;;;;4.25;4.25;;;;;21.88;50.15;100739.50;5075676;28;45490;-63
2022/08/22 07:34:09;;;;;;;;;5.00;5.00;;;;;21.86;50.11;100731.56;5075833;28;45387;-60
2022/08/22 07:36:48;;;;;;;;;4.25;4.25;;;;;21.83;50.13;100729.97;5075933;28;45507;-62
2022/08/22 07:39:16;;;;;;;;;6.00;6.00;;;;;21.86;50.20;100734.25;5075789;28;45423;-63
2022/08/22 07:41:52;;;;;;;;;5.00;5.00;;;;;21.88;50.15;100726.94;5075654;28;46401;-63
2022/08/22 07:44:22;;;;;;;;;2.00;2.00;;;;;21.95;50.14;100732.63;5079232;28;45452;-60
2022/08/22 07:46:59;;;;;;;;;7.00;5.50;;;;;21.98;49.96;100732.41;5079291;28;45374;-60
2022/08/22 07:49:32;;;;;;;;;6.00;6.00;;;;;21.99;50.08;100732.28;5079084;28;45351;-62
2022/08/22 07:52:06;;;;;;;;;4.25;4.25;;;;;22.00;50.14;100725.97;5079145;28;45415;-60
2022/08/22 07:54:41;;;;;;;;;4.50;4.50;;;;;21.99;50.33;100734.94;5078903;28;45465;-61
2022/08/22 07:57:14;;;;;;;;;6.00;4.00;;;;;22.03;50.07;100739.09;5079038;28;45463;-62
2022/08/22 07:59:47;;;;;;;;;8.75;6.25;;;;;21.99;50.27;100731.44;5078579;28;45399;-59
2022/08/22 08:02:16;;;;;;;;;7.50;5.00;;;;;22.03;50.17;100740.91;5078587;28;45408;-61
2022/08/22 08:04:42;;;;;;;;;9.00;8.00;;;;;22.07;50.41;100739.69;5078777;28;45430;-63
2022/08/22 08:07:10;;;;;;;;;8.67;8.67;;;;;22.11;50.24;100735.81;5078925;28;45455;-62
2022/08/22 08:09:43;;;;;;;;;6.00;6.00;;;;;22.17;49.82;100735.28;5060473;28;45625;-61
2022/08/22 08:12:11;;;;;;;;;6.00;5.50;;;;;22.25;50.16;100742.75;5078705;28;45457;-63
2022/08/22 08:14:41;;;;;;;;;6.25;5.00;;;;;22.26;49.76;100745.28;5078724;28;45414;-61
2022/08/22 08:17:25;;;;;;;;;5.00;5.00;;;;;22.25;49.90;100743.59;5078682;28;45472;-62
2022/08/22 08:19:53;;;;;;;;;6.50;4.50;;;;;22.27;49.96;100738.06;5078676;28;45368;-63
2022/08/22 08:22:23;;;;;;;;;4.75;4.25;;;;;22.33;49.83;100755.50;5079015;28;45498;-63
2022/08/22 08:24:52;;;;;;;;;7.50;5.75;;;;;22.36;50.19;100739.16;5078318;28;45477;-63
2022/08/22 08:30:13;;;;;;;;;3.00;3.00;;;;;22.40;49.73;100752.16;5078650;28;45437;-61
2022/08/22 08:32:41;;;;;;;;;6.00;5.25;;;;;22.43;49.89;100759.09;5078291;28;45371;-60
2022/08/22 08:35:22;;;;;;;;;4.25;4.25;;;;;22.46;49.60;100749.00;5060351;28;45661;-61
2022/08/22 08:37:53;;;;;;;;;4.00;4.00;;;;;22.52;49.71;100747.63;5078802;28;45495;-59
2022/08/22 08:40:24;;;;;;;;;5.00;5.00;;;;;22.54;49.66;100744.81;5078440;28;45573;-60
2022/08/22 08:46:06;;;;;;;;;4.25;4.25;;;;;22.50;49.39;100738.88;5078235;28;45511;-61
2022/08/22 08:48:53;;;;;;;;;6.25;5.00;;;;;22.52;49.65;100731.56;5078367;28;45383;-61
2022/08/22 08:51:30;;;;;;;;;5.00;5.00;;;;;22.54;49.47;100726.94;5078364;28;45479;-63
2022/08/22 08:54:16;;;;;;;;;9.75;7.25;;;;;22.56;49.53;100730.31;5059517;28;46012;-60
2022/08/22 08:57:11;;;;;;;;;6.00;5.50;;;;;22.58;49.74;100731.03;5078055;28;45508;-63
2022/08/22 09:00:00;;;;;;;;;6.25;6.25;;;;;22.59;49.67;100721.16;5078079;28;45462;-60
2022/08/22 09:02:36;;;;;;;;;7.50;6.00;;;;;22.58;49.59;100711.44;5078248;28;45436;-61
2022/08/22 09:05:45;;;;;;;;;4.00;4.00;;;;;22.61;49.60;100713.84;5077827;28;46498;-62
2022/08/22 09:08:32;;;;;;;;;9.50;9.50;;;;;22.64;49.67;100709.06;5077781;28;45454;-61
2022/08/22 09:11:47;;;;;;;;;7.25;7.00;;;;;22.66;49.73;100707.09;5078098;28;45390;-63
2022/08/22 09:14:36;;;;;;;;;9.50;8.50;;;;;22.66;49.96;100707.09;5042053;28;45892;-61
2022/08/22 09:17:20;;;;;;;;;6.00;5.00;;;;;22.71;49.11;100704.91;5077479;28;47379;-63
2022/08/22 09:20:06;;;;;;;;;4.25;4.25;;;;;22.74;48.79;100711.81;5077923;28;45442;-61
2022/08/22 09:23:03;;;;;;;;;2.00;2.00;;;;;22.75;48.91;100700.09;5078420;28;45395;-63
2022/08/22 09:25:45;;;;;;;;;5.50;4.50;;;;;22.75;48.90;100704.63;5077816;28;45602;-63
2022/08/22 09:28:13;;;;;;;;;4.00;4.00;;;;;22.77;49.14;100705.34;5077592;28;45524;-62
2022/08/22 09:31:05;;;;;;;;;5.25;5.25;;;;;22.79;49.13;100698.88;5077629;28;45563;-61
2022/08/22 09:33:50;;;;;;;;;7.50;7.00;;;;;22.86;49.02;100697.38;5077710;28;45587;-63
2022/08/22 09:36:34;;;;;;;;;4.00;4.00;;;;;22.87;48.79;100695.56;5077655;28;45382;-61
2022/08/22 09:39:12;;;;;;;;;6.50;6.50;;;;;22.85;49.12;100684.09;5077500;28;46289;-64
2022/08/22 09:41:43;;;;;;;;;5.75;5.00;;;;;22.90;49.11;100696.13;5077328;28;45561;-61
2022/08/22 09:44:29;;;;;;;;;3.50;3.50;;;;;22.94;48.87;100700.25;5077562;28;45524;-60
2022/08/22 09:47:03;;;;;;;;;3.75;3.75;;;;;23.01;48.68;100695.25;5077534;28;45333;-63
2022/08/22 09:49:43;;;;;;;;;3.75;3.75;;;;;23.05;48.37;100691.31;5076895;28;46364;-63
2022/08/22 09:52:17;;;;;;;;;5.50;4.25;;;;;23.04;48.05;100689.59;5076485;28;45391;-63
2022/08/22 09:54:48;;;;;;;;;6.25;6.25;;;;;23.05;47.99;100683.28;5076769;28;45572;-60
2022/08/22 09:57:36;;;;;;;;;7.25;7.00;;;;;23.06;48.32;100681.44;5076944;28;45442;-60
2022/08/22 10:00:05;;;;;;;;;3.00;3.00;;;;;23.11;48.33;100687.25;5076343;28;46145;-63
2022/08/22 10:02:37;;;;;;;;;2.75;2.75;;;;;23.09;48.11;100676.66;5075660;28;45409;-60
2022/08/22 10:05:18;;;;;;;;;4.75;4.75;;;;;23.13;48.42;100683.47;5075823;28;45494;-61
2022/08/22 10:08:21;;;;;;;;;3.25;2.75;;;;;23.17;48.30;100681.34;5076555;28;45561;-60
2022/08/22 10:11:02;;;;;;;;;2.75;2.75;;;;;23.22;47.87;100684.47;5084977;27;45558;-64
2022/08/22 10:13:54;;;;;;;;;6.50;5.25;;;;;23.26;48.33;100688.59;5084955;27;45500;-67
2022/08/22 10:17:01;;;;;;;;;4.00;4.00;;;;;23.28;48.10;100689.31;5090584;27;45462;-65
2022/08/22 10:19:43;;;;;;;;;5.25;5.25;;;;;23.30;48.49;100683.81;4977171;28;45571;-65
2022/08/22 10:22:31;;;;;;;;;15.67;14.67;;;;;23.37;48.17;100684.97;5068244;28;45521;-66
2022/08/22 10:25:15;;;;;;;;;9.25;9.25;;;;;23.41;48.30;100678.34;5075538;27;45411;-67
2022/08/22 10:27:43;;;;;;;;;8.00;6.50;;;;;23.40;48.13;100679.34;5076195;28;45363;-66
2022/08/22 10:30:17;;;;;;;;;14.67;12.33;;;;;23.42;48.11;100692.63;5075711;27;45478;-68
2022/08/22 10:33:09;;;;;;;;;23.00;20.33;;;;;23.49;48.00;100686.56;5089030;27;45456;-70
2022/08/22 10:35:49;;;;;;;;;10.75;10.75;;;;;23.54;48.04;100691.53;5087477;27;45549;-67
2022/08/22 10:38:23;;;;;;;;;6.75;6.75;;;;;23.55;47.55;100686.03;5096481;27;45559;-65
2022/08/22 10:40:55;;;;;;;;;4.75;4.75;;;;;23.59;47.70;100673.19;5095951;27;45591;-65
2022/08/22 10:43:45;;;;;;;;;10.00;8.50;;;;;23.64;47.73;100684.34;5075978;28;45453;-67
2022/08/22 10:46:16;;;;;;;;;3.00;3.00;;;;;23.71;48.07;100680.16;5075192;28;45418;-69
2022/08/22 10:48:50;;;;;;;;;3.00;3.00;;;;;23.69;47.54;100676.72;5075696;28;45436;-66
2022/08/22 10:51:23;;;;;;;;;3.75;3.50;;;;;23.80;47.89;100686.53;5075776;28;45401;-67
2022/08/22 10:54:08;;;;;;;;;2.50;2.50;;;;;23.80;47.66;100682.06;5075784;27;45509;-67
2022/08/22 10:56:48;;;;;;;;;3.75;3.00;;;;;23.83;47.43;100683.63;5076971;27;45497;-62
2022/08/22 10:59:32;;;;;;;;;3.00;3.00;;;;;23.85;47.64;100683.44;5076438;27;45392;-62
2022/08/22 11:02:21;;;;;;;;;2.25;2.25;;;;;23.91;48.25;100675.72;5089593;27;45385;-61
2022/08/22 11:05:17;;;;;;;;;2.00;2.00;;;;;23.97;47.79;100667.09;5095383;27;45448;-63
2022/08/22 11:08:08;;;;;;;;;2.75;2.75;;;;;24.01;47.94;100678.38;5095664;27;45406;-63
2022/08/22 11:11:01;;;;;;;;;3.00;3.00;;;;;24.07;47.67;100674.28;5047982;27;45363;-61
2022/08/22 11:13:45;;;;;;;;;3.75;3.00;;;;;24.13;47.54;100681.81;5096168;27;45473;-61
2022/08/22 11:16:23;;;;;;;;;3.00;3.00;;;;;24.16;47.31;100677.00;5096498;27;45435;-60
2022/08/22 11:19:13;;;;;;;;;5.00;3.00;;;;;24.12;47.43;100675.56;5099431;27;45620;-62
2022/08/22 11:21:58;;;;;;;;;5.25;4.00;;;;;24.18;47.89;100679.53;5099906;27;45444;-62
2022/08/22 11:24:26;;;;;;;;;4.00;4.00;;;;;24.22;47.64;100670.22;5099511;27;45412;-62
2022/08/22 11:26:57;;;;;;;;;3.00;3.00;;;;;24.21;47.83;100663.16;5099299;27;45454;-63
2022/08/22 11:29:30;;;;;;;;;4.00;4.00;;;;;24.23;47.57;100663.84;5099424;27;45494;-62
2022/08/22 11:32:20;;;;;;;;;5.00;3.00;;;;;24.31;47.43;100668.50;5099600;27;45475;-63
2022/08/22 11:35:03;;;;;;;;;4.00;2.75;;;;;24.39;47.80;100674.88;5099413;27;45503;-61
2022/08/22 11:38:00;;;;;;;;;5.50;5.50;;;;;24.49;47.31;100672.22;5094796;27;46241;-61
2022/08/22 11:40:36;;;;;;;;;3.00;3.00;;;;;24.56;47.24;100667.97;4991264;28;45409;-63
2022/08/22 11:43:21;;;;;;;;;3.50;3.25;;;;;24.62;47.26;100662.03;5078845;28;45411;-61
2022/08/22 11:45:52;;;;;;;;;3.00;3.00;;;;;24.66;47.08;100666.13;5079588;27;45489;-61
2022/08/22 11:48:44;;;;;;;;;4.00;4.00;;;;;24.72;46.71;100666.53;5078275;28;45500;-64
2022/08/22 11:51:26;;;;;;;;;4.00;4.00;;;;;24.77;47.08;100650.81;5083060;27;45607;-66
2022/08/22 11:54:09;;;;;;;;;3.75;3.75;;;;;24.86;47.03;100655.34;5095064;27;45383;-71
2022/08/22 11:56:52;;;;;;;;;3.00;3.00;;;;;24.92;47.06;100650.19;5075298;27;45418;-64
2022/08/22 11:59:52;;;;;;;;;3.00;3.00;;;;;25.03;46.54;100659.09;5098641;27;46290;-69
2022/08/22 12:02:31;;;;;;;;;2.20;2.20;;;;;25.13;46.63;100651.84;5098705;27;45369;-64
2022/08/22 12:05:11;;;;;;;;;3.25;3.25;;;;;25.19;46.43;100656.66;5099079;27;45441;-67
2022/08/22 12:07:44;;;;;;;;;3.50;3.50;;;;;25.25;45.85;100660.59;5080014;27;45566;-66
2022/08/22 12:10:20;;;;;;;;;4.00;1.50;;;;;25.22;45.98;100655.53;5083952;27;45423;-64
2022/08/22 12:12:59;;;;;;;;;5.50;4.50;;;;;25.14;46.34;100662.44;5086179;27;45408;-66
2022/08/22 12:15:50;;;;;;;;;3.50;3.50;;;;;25.15;46.38;100652.59;5082691;27;45596;-66
2022/08/22 12:18:46;;;;;;;;;4.50;4.00;;;;;25.42;46.16;100648.22;5082885;27;45550;-67
2022/08/22 12:21:24;;;;;;;;;4.75;4.25;;;;;25.66;45.87;100651.22;5078082;28;45458;-67
2022/08/22 12:24:14;;;;;;;;;2.00;1.00;;;;;25.88;45.17;100649.97;5078858;27;45581;-65
2022/08/22 12:26:59;;;;;;;;;2.40;2.00;;;;;25.98;44.79;100639.97;5078448;28;45507;-66
2022/08/22 12:29:49;;;;;;;;;2.00;2.00;;;;;26.03;44.92;100630.56;5077697;28;45459;-66
2022/08/22 12:32:36;;;;;;;;;2.50;2.50;;;;;25.95;44.95;100623.22;5078661;27;46071;-65
2022/08/22 12:35:20;;;;;;;;;6.00;2.20;;;;;25.95;44.90;100628.63;5077815;27;45416;-64